Time;durP1;ratioP1;P1;durP2;ratioP2;P2;SDS_P1;SDS_P2;PMS_P1;PMS_P2;Temp;Humidity;BMP_temperature;BMP_pressure;BME280_temperature;BME280_humidity;BME280_pressure;Samples;Min_cycle;Max_cycle;Signal;HPM_P1;HPM_P2
2021/10/18 00:01:01;;;;;;;11.10;9.13;;;11.40;99.90;;;;;;5091314;28;20958;-79
2021/10/18 00:03:27;;;;;;;12.80;10.00;;;11.40;99.90;;;;;;5088505;28;20550;-79
2021/10/18 00:05:55;;;;;;;11.37;9.73;;;11.40;99.90;;;;;;5078089;28;20927;-79
2021/10/18 00:08:22;;;;;;;11.07;9.40;;;11.30;99.90;;;;;;5078696;28;20479;-79
2021/10/18 00:10:49;;;;;;;15.57;9.83;;;11.30;99.90;;;;;;5078342;28;20902;-79
2021/10/18 00:13:15;;;;;;;12.57;8.93;;;11.30;99.90;;;;;;5092158;28;20478;-80
2021/10/18 00:15:42;;;;;;;12.97;10.23;;;11.30;99.90;;;;;;5091769;28;21005;-79
2021/10/18 00:18:08;;;;;;;11.10;8.57;;;11.30;99.90;;;;;;5091598;28;20454;-79
2021/10/18 00:20:35;;;;;;;11.00;8.87;;;11.20;99.90;;;;;;5089137;28;20530;-79
2021/10/18 00:23:04;;;;;;;11.20;8.80;;;11.30;99.90;;;;;;5091311;28;20450;-79
2021/10/18 00:25:30;;;;;;;10.37;9.03;;;11.30;99.90;;;;;;5091634;28;20516;-79
2021/10/18 00:27:57;;;;;;;11.80;9.33;;;11.30;99.90;;;;;;5091410;28;20472;-79
2021/10/18 00:30:24;;;;;;;15.50;10.33;;;11.30;99.90;;;;;;5090357;28;20442;-80
2021/10/18 00:32:50;;;;;;;11.37;10.13;;;11.30;99.90;;;;;;5089156;28;20447;-81
2021/10/18 00:35:17;;;;;;;13.77;8.60;;;11.30;99.90;;;;;;5091088;28;21201;-80
2021/10/18 00:37:43;;;;;;;15.20;8.77;;;11.30;99.90;;;;;;5091389;28;20504;-80
2021/10/18 00:40:14;;;;;;;12.23;9.10;;;11.20;99.90;;;;;;5089607;28;21048;-80
2021/10/18 00:42:41;;;;;;;12.90;8.70;;;11.30;99.90;;;;;;5080146;28;20489;-83
2021/10/18 00:45:10;;;;;;;9.47;8.47;;;11.30;99.90;;;;;;5076288;28;20470;-81
2021/10/18 00:47:37;;;;;;;10.57;9.47;;;11.30;99.90;;;;;;5077397;28;20487;-81
2021/10/18 00:50:04;;;;;;;9.60;8.40;;;11.30;99.90;;;;;;5076927;28;20447;-81
2021/10/18 00:52:31;;;;;;;14.17;9.33;;;11.20;99.90;;;;;;5078784;28;20539;-81
2021/10/18 00:54:57;;;;;;;10.57;9.23;;;11.20;99.90;;;;;;5077396;28;20576;-80
2021/10/18 00:57:25;;;;;;;9.63;7.83;;;11.20;99.90;;;;;;5076827;28;20526;-80
2021/10/18 00:59:52;;;;;;;10.80;9.63;;;11.30;99.90;;;;;;5076680;28;20471;-80
2021/10/18 01:02:19;;;;;;;9.73;8.73;;;11.30;99.90;;;;;;5077444;28;20534;-80
2021/10/18 01:04:47;;;;;;;10.50;9.40;;;11.30;99.90;;;;;;5079019;28;20442;-80
2021/10/18 01:07:14;;;;;;;10.43;9.23;;;11.30;99.90;;;;;;5076820;28;20538;-80
2021/10/18 01:09:40;;;;;;;12.30;8.30;;;11.30;99.90;;;;;;5076587;28;20469;-81
2021/10/18 01:12:07;;;;;;;12.40;8.37;;;11.30;99.90;;;;;;5076525;28;20471;-81
2021/10/18 01:14:36;;;;;;;9.87;8.70;;;11.30;99.90;;;;;;5078826;28;20486;-80
2021/10/18 01:17:02;;;;;;;9.40;8.20;;;11.30;99.90;;;;;;5077136;28;20501;-81
2021/10/18 01:19:29;;;;;;;11.27;8.97;;;11.30;99.90;;;;;;5076655;28;20532;-80
2021/10/18 01:22:00;;;;;;;13.20;9.20;;;11.20;99.90;;;;;;5076535;28;20539;-81
2021/10/18 01:24:26;;;;;;;14.17;10.10;;;11.30;99.90;;;;;;5077898;28;20444;-80
2021/10/18 01:26:53;;;;;;;8.80;7.90;;;11.30;99.90;;;;;;5077597;28;20439;-81
2021/10/18 01:29:20;;;;;;;11.27;8.37;;;11.30;99.90;;;;;;5076545;28;20501;-81
2021/10/18 01:31:46;;;;;;;11.03;8.30;;;11.30;99.90;;;;;;5076405;28;20527;-80
2021/10/18 01:34:13;;;;;;;13.90;8.67;;;11.30;99.90;;;;;;5076167;28;20540;-80
2021/10/18 01:36:40;;;;;;;10.47;8.77;;;11.30;99.90;;;;;;5079067;28;20439;-83
2021/10/18 01:39:08;;;;;;;10.50;8.03;;;11.30;99.90;;;;;;5076050;28;20505;-82
2021/10/18 01:41:35;;;;;;;12.80;8.67;;;11.30;99.90;;;;;;5076004;28;20538;-82
2021/10/18 01:44:01;;;;;;;13.57;8.60;;;11.30;99.90;;;;;;5076015;28;20486;-82
2021/10/18 01:46:28;;;;;;;11.77;9.37;;;11.30;99.90;;;;;;5077628;28;20482;-80
2021/10/18 01:48:54;;;;;;;9.70;8.70;;;11.30;99.90;;;;;;5077372;28;20501;-80
2021/10/18 01:51:21;;;;;;;11.73;8.67;;;11.30;99.90;;;;;;5075988;28;20447;-80
2021/10/18 01:53:48;;;;;;;12.20;8.87;;;11.30;99.90;;;;;;5075787;28;20537;-80
2021/10/18 01:56:15;;;;;;;12.53;8.37;;;11.30;99.90;;;;;;5075551;28;20443;-81
2021/10/18 01:58:42;;;;;;;12.13;9.73;;;11.30;99.90;;;;;;5083534;28;20505;-81
2021/10/18 02:01:09;;;;;;;10.27;8.43;;;11.30;99.90;;;;;;5089867;28;20475;-81
2021/10/18 02:03:37;;;;;;;10.17;9.20;;;11.30;99.90;;;;;;5085151;28;20531;-81
2021/10/18 02:06:03;;;;;;;9.70;8.63;;;11.30;99.90;;;;;;5075583;28;20788;-81
2021/10/18 02:08:33;;;;;;;12.03;9.80;;;11.30;99.90;;;;;;5077288;28;20482;-81
2021/10/18 02:11:00;;;;;;;11.00;9.03;;;11.30;99.90;;;;;;5075633;28;20481;-80
2021/10/18 02:13:28;;;;;;;9.83;8.80;;;11.30;99.90;;;;;;5075688;28;20490;-80
2021/10/18 02:15:55;;;;;;;11.40;10.07;;;11.30;99.90;;;;;;5075437;28;20562;-80
2021/10/18 02:18:21;;;;;;;10.90;9.67;;;11.30;99.90;;;;;;5076127;28;20478;-80
2021/10/18 02:20:48;;;;;;;12.07;8.50;;;11.30;99.90;;;;;;5077540;28;20443;-81
2021/10/18 02:23:14;;;;;;;16.53;9.47;;;11.30;99.90;;;;;;5075134;28;20447;-81
2021/10/18 02:25:41;;;;;;;10.00;9.00;;;11.30;99.90;;;;;;5075411;28;20538;-79
2021/10/18 02:28:08;;;;;;;12.60;8.60;;;11.30;99.90;;;;;;5075227;28;20440;-79
2021/10/18 02:30:35;;;;;;;8.70;7.83;;;11.30;99.90;;;;;;5077642;28;20566;-79
2021/10/18 02:33:02;;;;;;;10.47;7.87;;;11.30;99.90;;;;;;5078790;28;20538;-79
2021/10/18 02:35:29;;;;;;;12.20;8.80;;;11.30;99.90;;;;;;5089138;28;20561;-79
2021/10/18 02:37:55;;;;;;;9.07;7.30;;;11.30;99.90;;;;;;5088875;28;20455;-79
2021/10/18 02:40:22;;;;;;;7.97;7.17;;;11.30;99.90;;;;;;5088746;28;20447;-79
2021/10/18 02:42:48;;;;;;;9.20;7.77;;;11.30;99.90;;;;;;5084984;28;20568;-80
2021/10/18 02:45:15;;;;;;;8.20;7.40;;;11.30;99.90;;;;;;5075212;28;20501;-80
2021/10/18 02:47:43;;;;;;;10.70;7.20;;;11.30;99.90;;;;;;5075533;28;20501;-80
2021/10/18 02:50:09;;;;;;;8.40;6.53;;;11.30;99.90;;;;;;5075127;28;20531;-80
2021/10/18 02:52:36;;;;;;;9.97;8.07;;;11.30;99.90;;;;;;5077523;28;20821;-80
2021/10/18 02:55:03;;;;;;;11.83;7.50;;;11.40;99.90;;;;;;5075227;28;20521;-81
2021/10/18 02:57:29;;;;;;;7.30;6.53;;;11.40;99.90;;;;;;5074873;28;20479;-80
2021/10/18 02:59:56;;;;;;;7.17;6.47;;;11.30;99.90;;;;;;5075031;28;20448;-80
2021/10/18 03:02:22;;;;;;;9.53;7.37;;;11.30;99.90;;;;;;5076182;28;20439;-80
2021/10/18 03:04:51;;;;;;;10.23;7.40;;;11.30;99.90;;;;;;5076658;28;20473;-80
2021/10/18 03:07:18;;;;;;;8.60;7.40;;;11.30;99.90;;;;;;5075029;28;20843;-80
2021/10/18 03:09:45;;;;;;;9.20;6.53;;;11.40;99.90;;;;;;5078831;28;20493;-80
2021/10/18 03:12:11;;;;;;;12.40;7.20;;;11.30;99.90;;;;;;5078407;28;20566;-80
2021/10/18 03:14:38;;;;;;;9.87;7.47;;;11.40;99.90;;;;;;5081670;28;20573;-81
2021/10/18 03:17:05;;;;;;;9.83;7.30;;;11.30;99.90;;;;;;5092662;28;20958;-81
2021/10/18 03:19:31;;;;;;;9.43;7.40;;;11.30;99.90;;;;;;5092662;28;20442;-81
2021/10/18 03:21:59;;;;;;;11.07;7.60;;;11.30;99.90;;;;;;5092706;28;20470;-81
2021/10/18 03:24:26;;;;;;;11.40;7.57;;;11.30;99.90;;;;;;5091450;28;20523;-80
2021/10/18 03:26:53;;;;;;;15.27;7.73;;;11.30;99.90;;;;;;5090921;28;20479;-80
2021/10/18 03:29:20;;;;;;;14.17;7.57;;;11.30;99.90;;;;;;5092569;28;20442;-80
2021/10/18 03:31:46;;;;;;;9.83;8.07;;;11.30;99.90;;;;;;5092444;28;20500;-81
2021/10/18 03:34:13;;;;;;;8.40;6.70;;;11.30;99.90;;;;;;5092147;28;20446;-81
2021/10/18 03:36:40;;;;;;;6.87;6.03;;;11.30;99.90;;;;;;5089264;28;20475;-81
2021/10/18 03:39:07;;;;;;;7.33;6.73;;;11.30;99.90;;;;;;5092560;28;20482;-80
2021/10/18 03:41:34;;;;;;;8.30;6.97;;;11.30;99.90;;;;;;5091808;28;20891;-79
2021/10/18 03:44:01;;;;;;;9.00;7.00;;;11.30;99.90;;;;;;5090078;28;20790;-80
2021/10/18 03:46:27;;;;;;;8.23;7.37;;;11.30;99.90;;;;;;5077144;28;20444;-79
2021/10/18 03:48:54;;;;;;;8.20;7.20;;;11.40;99.90;;;;;;5088283;28;20479;-80
2021/10/18 03:51:21;;;;;;;7.70;7.00;;;11.30;99.90;;;;;;5084120;28;20474;-81
2021/10/18 03:53:47;;;;;;;10.03;6.53;;;11.30;99.90;;;;;;5082976;28;20467;-81
2021/10/18 03:56:15;;;;;;;8.00;6.93;;;11.30;99.90;;;;;;5091703;28;20543;-80
2021/10/18 03:58:42;;;;;;;7.00;5.83;;;11.40;99.90;;;;;;5062016;28;20484;-81
2021/10/18 04:01:09;;;;;;;10.70;6.13;;;11.40;99.90;;;;;;5088187;28;20476;-81
2021/10/18 04:03:36;;;;;;;8.10;6.50;;;11.30;99.90;;;;;;5086952;28;20450;-81
2021/10/18 04:06:03;;;;;;;7.40;6.70;;;11.40;99.90;;;;;;5080923;28;20624;-81
2021/10/18 04:08:31;;;;;;;8.10;6.53;;;11.30;99.90;;;;;;5091705;28;20443;-80
2021/10/18 04:10:58;;;;;;;8.00;6.80;;;11.30;99.90;;;;;;5080366;28;20581;-80
2021/10/18 04:13:26;;;;;;;7.73;6.97;;;11.30;99.90;;;;;;5085675;28;20451;-80
2021/10/18 04:15:53;;;;;;;9.83;7.00;;;11.30;99.90;;;;;;5088116;28;20621;-80
2021/10/18 04:18:19;;;;;;;10.50;6.87;;;11.30;99.90;;;;;;5078319;28;20538;-79
2021/10/18 04:20:46;;;;;;;9.73;6.97;;;11.30;99.90;;;;;;5089992;28;20530;-80
2021/10/18 04:23:13;;;;;;;7.37;6.63;;;11.30;99.90;;;;;;5082684;28;20474;-79
2021/10/18 04:25:39;;;;;;;7.53;6.93;;;11.30;99.90;;;;;;5083582;28;20447;-79
2021/10/18 04:28:06;;;;;;;13.57;6.83;;;11.30;99.90;;;;;;5089797;28;21007;-79
2021/10/18 04:30:34;;;;;;;9.57;7.00;;;11.30;99.90;;;;;;5077921;28;20448;-80
2021/10/18 04:33:01;;;;;;;8.80;6.53;;;11.30;99.90;;;;;;5088710;28;20853;-80
2021/10/18 04:35:27;;;;;;;8.13;6.90;;;11.30;99.90;;;;;;5084461;28;20519;-79
2021/10/18 04:37:54;;;;;;;9.63;6.60;;;11.30;99.90;;;;;;5081371;28;20443;-79
2021/10/18 04:40:20;;;;;;;7.33;6.60;;;11.30;99.90;;;;;;5091599;28;20858;-81
2021/10/18 04:42:47;;;;;;;7.67;6.47;;;11.30;99.90;;;;;;5078270;28;20778;-80
2021/10/18 04:45:14;;;;;;;6.07;5.57;;;11.30;99.90;;;;;;5086998;28;20500;-78
2021/10/18 04:47:43;;;;;;;6.03;5.43;;;11.30;99.90;;;;;;5085946;28;20487;-78
2021/10/18 04:50:10;;;;;;;8.10;5.87;;;11.30;99.90;;;;;;5078795;28;20527;-79
2021/10/18 04:52:36;;;;;;;5.83;5.43;;;11.30;99.90;;;;;;5090987;28;20933;-78
2021/10/18 04:55:03;;;;;;;6.20;5.43;;;11.30;99.90;;;;;;5080500;28;20466;-78
2021/10/18 04:57:30;;;;;;;6.43;5.83;;;11.20;99.90;;;;;;5084099;28;20851;-79
2021/10/18 04:59:56;;;;;;;10.50;6.00;;;11.20;99.90;;;;;;5088024;28;20443;-81
2021/10/18 05:02:23;;;;;;;7.73;6.47;;;11.20;99.90;;;;;;5078136;28;20862;-80
2021/10/18 05:04:51;;;;;;;7.77;6.40;;;11.20;99.90;;;;;;5089720;28;20452;-79
2021/10/18 05:07:17;;;;;;;6.83;6.10;;;11.20;99.90;;;;;;5082437;28;20489;-79
2021/10/18 05:09:44;;;;;;;7.47;6.50;;;11.10;99.90;;;;;;5081902;28;20475;-79
2021/10/18 05:12:11;;;;;;;6.27;5.63;;;11.10;99.90;;;;;;5089607;28;20470;-79
2021/10/18 05:14:37;;;;;;;7.97;5.90;;;11.00;99.90;;;;;;5077002;28;21027;-79
2021/10/18 05:17:04;;;;;;;10.47;6.67;;;11.00;99.90;;;;;;5087617;28;20482;-79
2021/10/18 05:19:30;;;;;;;6.73;6.13;;;10.90;99.90;;;;;;5084001;28;20975;-79
2021/10/18 05:21:58;;;;;;;9.13;6.37;;;10.90;99.90;;;;;;5079963;28;20845;-78
2021/10/18 05:24:25;;;;;;;5.80;5.23;;;10.90;99.90;;;;;;5090193;28;20961;-79
2021/10/18 05:26:51;;;;;;;6.90;6.30;;;10.80;99.90;;;;;;5078169;28;20450;-80
2021/10/18 05:29:18;;;;;;;10.07;6.20;;;10.90;99.90;;;;;;5085195;28;20993;-79
2021/10/18 05:31:44;;;;;;;6.40;5.80;;;10.90;99.90;;;;;;5074386;28;20442;-84
2021/10/18 05:34:11;;;;;;;8.77;6.20;;;10.90;99.90;;;;;;5072353;28;20456;-82
2021/10/18 05:36:38;;;;;;;7.70;6.00;;;10.90;99.90;;;;;;5089857;28;20506;-82
2021/10/18 05:39:05;;;;;;;8.67;6.20;;;10.90;99.90;;;;;;5079659;28;20504;-83
2021/10/18 05:41:32;;;;;;;6.70;6.00;;;10.90;99.90;;;;;;5082334;28;20474;-83
2021/10/18 05:43:59;;;;;;;8.43;5.40;;;10.80;99.90;;;;;;5073677;28;20448;-82
2021/10/18 05:46:26;;;;;;;6.80;5.60;;;10.80;99.90;;;;;;5074548;28;20444;-82
2021/10/18 05:48:53;;;;;;;7.23;5.47;;;10.70;99.90;;;;;;5077691;28;20999;-83
2021/10/18 05:51:19;;;;;;;8.77;5.60;;;10.60;99.90;;;;;;5084597;28;20444;-80
2021/10/18 05:53:46;;;;;;;8.03;6.17;;;10.60;99.90;;;;;;5085435;28;20469;-80
2021/10/18 05:56:14;;;;;;;7.40;5.60;;;10.60;99.90;;;;;;5077102;28;20479;-80
2021/10/18 05:58:40;;;;;;;9.07;5.43;;;10.60;99.90;;;;;;5089540;28;20857;-80
2021/10/18 06:01:07;;;;;;;6.73;5.47;;;10.50;99.90;;;;;;5080081;28;20945;-80
2021/10/18 06:03:34;;;;;;;6.20;4.90;;;10.50;99.90;;;;;;5093064;28;20446;-79
2021/10/18 06:06:02;;;;;;;7.53;6.20;;;10.50;99.90;;;;;;5078870;28;20463;-79
2021/10/18 06:08:29;;;;;;;6.23;5.63;;;10.50;99.90;;;;;;5089712;28;20450;-79
2021/10/18 06:10:55;;;;;;;8.83;4.70;;;10.50;99.90;;;;;;5078077;28;20553;-79
2021/10/18 06:13:23;;;;;;;7.83;5.87;;;10.60;99.90;;;;;;5084133;28;20470;-81
2021/10/18 06:15:50;;;;;;;6.73;5.03;;;10.70;99.90;;;;;;5085856;28;20471;-80
2021/10/18 06:18:18;;;;;;;5.93;5.13;;;10.80;99.90;;;;;;5076767;28;20447;-80
2021/10/18 06:20:46;;;;;;;6.40;5.80;;;10.80;99.90;;;;;;5060322;28;20531;-80
2021/10/18 06:23:13;;;;;;;12.00;5.87;;;10.90;99.90;;;;;;5085962;28;20448;-81
2021/10/18 06:25:41;;;;;;;8.03;4.77;;;10.90;99.90;;;;;;5085208;28;20465;-81
2021/10/18 06:28:08;;;;;;;5.80;5.30;;;11.00;99.90;;;;;;5078215;28;20465;-82
2021/10/18 06:30:37;;;;;;;5.37;4.83;;;11.20;99.90;;;;;;5089882;28;20442;-81
2021/10/18 06:33:04;;;;;;;9.17;5.83;;;11.20;99.90;;;;;;5079916;28;20439;-81
2021/10/18 06:35:31;;;;;;;7.37;5.13;;;11.20;99.90;;;;;;5082875;28;20887;-81
2021/10/18 06:37:57;;;;;;;10.33;4.97;;;11.30;99.90;;;;;;5087133;28;21002;-81
2021/10/18 06:40:24;;;;;;;5.23;4.73;;;11.40;99.90;;;;;;5076627;28;20474;-81
2021/10/18 06:42:51;;;;;;;6.30;5.70;;;11.40;99.90;;;;;;5087682;28;20439;-80
2021/10/18 06:45:17;;;;;;;6.70;4.90;;;11.40;99.90;;;;;;5081332;28;20453;-79
2021/10/18 06:47:45;;;;;;;6.73;4.60;;;11.40;99.90;;;;;;5080909;28;21004;-80
2021/10/18 06:50:14;;;;;;;4.93;4.43;;;11.40;99.90;;;;;;5077380;28;20506;-79
2021/10/18 06:52:42;;;;;;;7.17;4.50;;;11.30;99.90;;;;;;5085332;28;20484;-79
2021/10/18 06:55:11;;;;;;;14.17;5.57;;;11.40;99.90;;;;;;5074772;28;21009;-79
2021/10/18 06:57:38;;;;;;;6.13;5.07;;;11.30;99.90;;;;;;5074770;28;20447;-80
2021/10/18 07:00:07;;;;;;;5.30;4.80;;;11.30;99.90;;;;;;5074945;28;20440;-81
2021/10/18 07:02:33;;;;;;;5.40;4.90;;;11.20;99.90;;;;;;5077653;28;20504;-81
2021/10/18 07:05:01;;;;;;;10.37;5.40;;;11.30;99.90;;;;;;5072235;28;20500;-81
2021/10/18 07:07:28;;;;;;;6.40;5.40;;;11.30;99.90;;;;;;5074961;28;20849;-80
2021/10/18 07:09:59;;;;;;;6.23;5.03;;;11.30;99.90;;;;;;5074852;28;20446;-80
2021/10/18 07:12:27;;;;;;;5.50;5.00;;;11.30;99.90;;;;;;5076043;28;20464;-81
2021/10/18 07:14:54;;;;;;;8.87;5.00;;;11.30;99.90;;;;;;5087420;28;20861;-81
2021/10/18 07:17:22;;;;;;;6.60;5.50;;;11.30;99.90;;;;;;5081731;28;20474;-81
2021/10/18 07:19:49;;;;;;;7.20;6.37;;;11.40;99.90;;;;;;5079946;28;20530;-80
2021/10/18 07:22:17;;;;;;;9.03;5.93;;;11.60;99.90;;;;;;5088818;28;20478;-80
2021/10/18 07:24:43;;;;;;;8.37;5.70;;;11.70;99.90;;;;;;5076133;28;20505;-81
2021/10/18 07:27:10;;;;;;;5.87;5.27;;;11.90;99.90;;;;;;5084982;28;20479;-80
2021/10/18 07:29:38;;;;;;;7.60;6.80;;;12.00;99.90;;;;;;5072553;28;20810;-80
2021/10/18 07:32:05;;;;;;;6.27;5.70;;;12.10;99.90;;;;;;5072873;28;20836;-80
2021/10/18 07:34:31;;;;;;;6.97;5.63;;;12.10;99.90;;;;;;5075694;28;20563;-80
2021/10/18 07:36:58;;;;;;;5.83;4.73;;;12.20;99.90;;;;;;5073712;28;20475;-80
2021/10/18 07:39:27;;;;;;;11.50;5.33;;;12.30;99.90;;;;;;5073924;28;20456;-80
2021/10/18 07:41:56;;;;;;;5.33;4.80;;;12.50;99.90;;;;;;5073643;28;20536;-80
2021/10/18 07:44:24;;;;;;;5.33;4.80;;;12.70;99.90;;;;;;5074268;28;20531;-80
2021/10/18 07:46:51;;;;;;;7.87;4.57;;;12.80;99.90;;;;;;5070270;28;20489;-80
2021/10/18 07:49:18;;;;;;;8.73;5.20;;;13.00;99.90;;;;;;5072975;28;20471;-80
2021/10/18 07:51:45;;;;;;;5.63;4.47;;;13.20;99.90;;;;;;5072725;28;20993;-80
2021/10/18 07:54:12;;;;;;;5.10;4.20;;;13.30;99.90;;;;;;5074175;28;20530;-81
2021/10/18 07:56:40;;;;;;;8.30;6.63;;;13.50;99.90;;;;;;5076915;28;20898;-82
2021/10/18 07:59:07;;;;;;;20.30;14.30;;;13.60;99.90;;;;;;5082939;28;20438;-82
2021/10/18 08:01:34;;;;;;;8.20;5.73;;;13.60;99.90;;;;;;5085118;28;20439;-76
2021/10/18 08:04:00;;;;;;;4.80;4.37;;;13.70;99.90;;;;;;5090459;28;20537;-76
2021/10/18 08:06:27;;;;;;;5.17;4.50;;;13.80;99.90;;;;;;5078751;28;20977;-76
2021/10/18 08:08:55;;;;;;;6.17;4.07;;;13.90;99.90;;;;;;5090024;28;20517;-76
2021/10/18 08:11:22;;;;;;;4.07;3.40;;;13.90;99.90;;;;;;5074846;28;20541;-76
2021/10/18 08:13:50;;;;;;;4.03;3.60;;;13.90;99.90;;;;;;5082368;28;20988;-76
2021/10/18 08:16:17;;;;;;;3.70;3.00;;;13.90;99.90;;;;;;5080772;28;20846;-76
2021/10/18 08:18:43;;;;;;;4.43;4.00;;;13.90;99.90;;;;;;5070636;28;20877;-77
2021/10/18 08:21:12;;;;;;;4.77;4.20;;;14.00;99.90;;;;;;5080628;28;20525;-77
2021/10/18 08:23:38;;;;;;;3.50;3.23;;;14.10;99.90;;;;;;5081430;28;20517;-77
2021/10/18 08:26:07;;;;;;;5.33;3.10;;;14.20;99.90;;;;;;5084319;28;20457;-77
2021/10/18 08:28:34;;;;;;;5.10;3.77;;;14.40;99.90;;;;;;5081944;28;20474;-77
2021/10/18 08:31:02;;;;;;;4.67;3.47;;;14.50;99.90;;;;;;5080453;28;20455;-77
2021/10/18 08:33:28;;;;;;;7.43;4.30;;;14.60;99.90;;;;;;5080811;28;21022;-77
2021/10/18 08:35:55;;;;;;;6.50;3.70;;;14.70;99.90;;;;;;5083822;28;20478;-77
2021/10/18 08:41:21;;;;;;;4.57;3.37;;;14.80;99.90;;;;;;5089608;27;20540;-77
2021/10/18 08:46:32;;;;;;;4.07;3.50;;;15.00;99.90;;;;;;5089469;28;20841;-77
2021/10/18 08:48:59;;;;;;;3.27;2.90;;;15.10;99.90;;;;;;5089913;28;20570;-77
2021/10/18 08:51:26;;;;;;;4.53;3.33;;;15.20;99.90;;;;;;5089734;28;20793;-77
2021/10/18 08:53:53;;;;;;;3.03;2.70;;;15.20;99.90;;;;;;5089358;28;20443;-77
2021/10/18 08:56:22;;;;;;;3.00;2.57;;;15.30;99.90;;;;;;5089861;28;20450;-77
2021/10/18 08:58:48;;;;;;;2.80;2.60;;;15.40;99.90;;;;;;5089593;28;20446;-77
2021/10/18 09:01:15;;;;;;;3.87;3.47;;;15.50;99.90;;;;;;5089231;28;20482;-77
2021/10/18 09:03:42;;;;;;;4.43;3.50;;;15.60;99.90;;;;;;5088547;28;20487;-77
2021/10/18 09:06:15;;;;;;;3.80;3.30;;;15.70;99.90;;;;;;5089398;28;20509;-77
2021/10/18 09:08:43;;;;;;;2.90;2.70;;;15.70;99.90;;;;;;5089343;28;20481;-77
2021/10/18 09:11:12;;;;;;;4.90;2.87;;;15.70;99.90;;;;;;5089285;28;20446;-77
2021/10/18 09:13:46;;;;;;;6.70;3.23;;;15.80;99.90;;;;;;5089159;28;20465;-77
2021/10/18 09:16:22;;;;;;;4.43;3.10;;;15.80;99.90;;;;;;5088897;28;20509;-78
2021/10/18 09:18:58;;;;;;;4.17;3.80;;;16.00;99.90;;;;;;5079553;28;20222;-79
2021/10/18 09:21:28;;;;;;;3.97;2.70;;;16.00;99.90;;;;;;5089160;28;20575;-75
2021/10/18 09:23:55;;;;;;;4.73;2.90;;;16.10;99.90;;;;;;5088750;28;20451;-75
2021/10/18 09:26:24;;;;;;;5.33;3.27;;;16.20;99.90;;;;;;5088054;28;20446;-75
2021/10/18 09:28:54;;;;;;;3.40;2.57;;;16.30;99.90;;;;;;5085964;28;20447;-75
2021/10/18 09:31:21;;;;;;;4.00;2.90;;;16.40;99.90;;;;;;5087751;28;20443;-75
2021/10/18 09:33:54;;;;;;;5.67;3.00;;;16.50;99.90;;;;;;5088053;28;20500;-76
2021/10/18 09:36:28;;;;;;;3.43;3.00;;;16.60;99.90;;;;;;5088036;28;20906;-75
2021/10/18 09:39:14;;;;;;;3.83;2.87;;;16.60;99.90;;;;;;5088148;28;20477;-77
2021/10/18 09:41:44;;;;;;;3.50;2.60;;;16.60;99.90;;;;;;5088883;28;20850;-76
2021/10/18 09:44:24;;;;;;;3.53;2.57;;;16.60;99.90;;;;;;5088631;28;20443;-78
2021/10/18 09:47:21;;;;;;;4.90;2.97;;;16.50;99.90;;;;;;5079585;28;20442;-82
2021/10/18 10:52:57;;;;;;;2.93;2.20;;;15.30;99.90;;;;;;5074498;28;20439;-84
2021/10/18 10:55:27;;;;;;;3.03;2.33;;;15.30;99.90;;;;;;5074343;28;20439;-84
2021/10/18 10:57:56;;;;;;;2.93;1.80;;;15.20;99.90;;;;;;5074578;28;20440;-84
2021/10/18 11:00:37;;;;;;;5.30;2.03;;;15.10;99.90;;;;;;5074702;28;20477;-84
2021/10/18 11:03:41;;;;;;;3.70;2.73;;;15.10;99.90;;;;;;5072955;28;20950;-84
2021/10/18 11:06:12;;;;;;;2.13;1.93;;;15.00;99.90;;;;;;5059354;28;20447;-84
2021/10/18 11:08:42;;;;;;;4.60;2.10;;;15.10;99.90;;;;;;5070345;28;20449;-84
2021/10/18 11:11:14;;;;;;;3.40;2.27;;;15.00;99.90;;;;;;5071035;28;20506;-84
2021/10/18 11:13:47;;;;;;;5.00;3.17;;;15.00;99.90;;;;;;5074218;28;20803;-84
2021/10/18 11:16:14;;;;;;;5.77;2.80;;;15.00;99.90;;;;;;5073813;28;20511;-85
2021/10/18 11:18:41;;;;;;;2.17;2.07;;;15.10;99.90;;;;;;5074780;28;20456;-84
2021/10/18 11:21:16;;;;;;;5.57;1.93;;;15.20;99.90;;;;;;5074717;28;20885;-84
2021/10/18 11:24:05;;;;;;;4.37;2.50;;;15.30;99.90;;;;;;5073999;28;20443;-84
2021/10/18 11:26:34;;;;;;;2.63;2.40;;;15.60;99.90;;;;;;5073705;28;20890;-84
2021/10/18 11:29:03;;;;;;;2.33;1.80;;;15.90;99.90;;;;;;5073428;28;20773;-84
2021/10/18 11:31:31;;;;;;;3.43;2.00;;;16.10;99.90;;;;;;5072877;28;20455;-83
2021/10/18 11:34:04;;;;;;;3.10;2.27;;;16.30;99.90;;;;;;5056738;28;20780;-84
2021/10/18 11:36:30;;;;;;;2.27;2.07;;;16.40;99.90;;;;;;5073567;28;21008;-84
2021/10/18 11:39:10;;;;;;;2.20;1.80;;;16.50;99.90;;;;;;5072878;28;20475;-83
2021/10/18 11:42:20;;;;;;;1.93;1.50;;;16.40;99.90;;;;;;5072842;28;20536;-83
2021/10/18 11:44:54;;;;;;;2.40;1.67;;;16.30;99.90;;;;;;5057740;28;20467;-83
2021/10/18 11:47:31;;;;;;;2.37;1.97;;;16.20;99.90;;;;;;5073105;28;20457;-84
2021/10/18 11:50:20;;;;;;;2.43;1.60;;;16.10;99.90;;;;;;5072819;28;20452;-82
2021/10/18 11:52:50;;;;;;;2.40;1.70;;;16.10;99.90;;;;;;5072753;28;20719;-82
2021/10/18 11:55:19;;;;;;;3.60;1.60;;;16.10;99.90;;;;;;5073126;28;20945;-82
2021/10/18 11:57:49;;;;;;;2.17;1.70;;;16.00;99.90;;;;;;5073180;28;20444;-82
2021/10/18 12:00:27;;;;;;;1.90;1.47;;;16.00;99.90;;;;;;5073033;28;21057;-82
2021/10/18 12:02:59;;;;;;;1.97;1.60;;;16.00;99.90;;;;;;5073251;28;20448;-81
2021/10/18 12:05:28;;;;;;;3.30;1.90;;;16.00;99.90;;;;;;5073368;28;20445;-82
2021/10/18 12:07:55;;;;;;;3.33;1.63;;;16.00;99.90;;;;;;5072967;28;20479;-82
2021/10/18 12:10:26;;;;;;;3.33;1.50;;;16.00;99.90;;;;;;5072854;28;20998;-82
2021/10/18 12:13:13;;;;;;;3.40;1.90;;;16.00;99.90;;;;;;5072748;28;20799;-82
2021/10/18 12:15:46;;;;;;;1.40;1.30;;;16.10;99.90;;;;;;5065912;28;20503;-82
2021/10/18 12:18:13;;;;;;;2.33;1.77;;;16.20;99.90;;;;;;5072929;28;20443;-82
2021/10/18 12:20:44;;;;;;;2.00;1.03;;;16.20;99.90;;;;;;5073314;28;20503;-82
2021/10/18 12:23:18;;;;;;;1.90;1.60;;;16.20;99.90;;;;;;5072576;28;20529;-82
2021/10/18 12:25:55;;;;;;;1.30;1.20;;;16.20;99.90;;;;;;5072620;28;20470;-82
2021/10/18 12:28:38;;;;;;;1.37;1.27;;;16.20;99.90;;;;;;5072659;28;20799;-82
2021/10/18 12:31:06;;;;;;;1.43;1.30;;;16.20;99.90;;;;;;5072506;28;20447;-82
2021/10/18 12:33:34;;;;;;;1.57;1.30;;;16.30;99.90;;;;;;5072296;28;20474;-83
2021/10/18 12:36:02;;;;;;;2.00;1.60;;;16.30;99.90;;;;;;5072255;28;21005;-82
2021/10/18 12:38:30;;;;;;;2.53;1.67;;;16.30;99.90;;;;;;5072560;28;20530;-82
2021/10/18 12:41:09;;;;;;;2.33;1.30;;;16.30;99.90;;;;;;5072343;28;20507;-82
2021/10/18 12:43:36;;;;;;;1.53;1.43;;;16.40;99.90;;;;;;5072543;28;20792;-82
2021/10/18 12:46:21;;;;;;;1.57;1.47;;;16.40;99.90;;;;;;5072482;28;20451;-82
2021/10/18 12:49:04;;;;;;;1.50;1.40;;;16.50;99.90;;;;;;5072254;28;20505;-82
2021/10/18 12:51:36;;;;;;;2.27;1.37;;;16.50;99.90;;;;;;5072240;28;20443;-82
2021/10/18 12:54:23;;;;;;;1.60;1.50;;;16.60;99.90;;;;;;5052538;28;20479;-82
2021/10/18 12:57:03;;;;;;;3.60;1.73;;;16.60;99.90;;;;;;5062848;28;20478;-82
2021/10/18 12:59:32;;;;;;;5.27;1.80;;;16.70;99.90;;;;;;5072220;28;20451;-83
2021/10/18 13:02:24;;;;;;;2.70;1.67;;;16.60;99.90;;;;;;5056084;28;20483;-83
2021/10/18 13:05:19;;;;;;;4.03;1.60;;;16.60;99.90;;;;;;5072595;28;20796;-83
2021/10/18 13:07:51;;;;;;;2.90;1.70;;;16.50;99.90;;;;;;5071940;28;20962;-83
2021/10/18 13:10:19;;;;;;;1.80;1.60;;;16.60;99.90;;;;;;5072075;28;20479;-83
2021/10/18 13:12:48;;;;;;;2.67;1.47;;;16.60;99.90;;;;;;5072652;28;20443;-83
2021/10/18 13:15:16;;;;;;;1.53;1.40;;;16.60;99.90;;;;;;5072192;28;20451;-83
2021/10/18 13:17:43;;;;;;;2.63;2.23;;;16.60;99.90;;;;;;5071963;28;20443;-83
2021/10/18 13:20:11;;;;;;;2.67;1.90;;;16.60;99.90;;;;;;5071353;28;20525;-83
2021/10/18 13:22:38;;;;;;;2.10;2.00;;;16.60;99.90;;;;;;5072295;28;20850;-83
2021/10/18 13:25:06;;;;;;;2.50;1.40;;;16.60;99.90;;;;;;5072126;28;20451;-83
2021/10/18 13:27:33;;;;;;;1.43;1.33;;;16.70;99.90;;;;;;5074754;28;20475;-83
2021/10/18 13:30:01;;;;;;;1.90;1.10;;;16.70;99.90;;;;;;5075438;28;20448;-83
2021/10/18 13:32:28;;;;;;;1.80;1.47;;;16.60;99.90;;;;;;5076227;28;20477;-83
2021/10/18 13:34:56;;;;;;;1.00;0.90;;;16.60;99.90;;;;;;5075618;28;20446;-82
2021/10/18 13:37:23;;;;;;;1.63;1.53;;;16.50;99.90;;;;;;5076027;28;20443;-82
2021/10/18 13:39:58;;;;;;;4.17;1.50;;;16.50;99.90;;;;;;5075309;28;20471;-81
2021/10/18 13:42:25;;;;;;;1.67;1.30;;;16.50;99.90;;;;;;5075180;28;20471;-82
2021/10/18 13:44:55;;;;;;;2.50;1.43;;;16.50;99.90;;;;;;5075672;28;20448;-82
2021/10/18 13:47:23;;;;;;;1.77;1.20;;;16.40;99.90;;;;;;5076303;28;20549;-82
2021/10/18 13:49:49;;;;;;;1.10;1.00;;;16.50;99.90;;;;;;5075867;28;20488;-82
2021/10/18 13:52:16;;;;;;;1.87;1.77;;;16.50;99.90;;;;;;5075664;28;20489;-81
2021/10/18 13:54:43;;;;;;;2.27;1.30;;;16.60;99.90;;;;;;5075177;28;20934;-81
2021/10/18 13:57:09;;;;;;;1.70;1.50;;;16.50;99.90;;;;;;5074944;28;20486;-82
2021/10/18 13:59:37;;;;;;;4.40;1.30;;;16.50;99.90;;;;;;5074636;28;20448;-82